Time;durP1;ratioP1;P1;durP2;ratioP2;P2;SDS_P1;SDS_P2;PMS_P1;PMS_P2;Temp;Humidity;BMP_temperature;BMP_pressure;BME280_temperature;BME280_humidity;BME280_pressure;Samples;Min_cycle;Max_cycle;Signal;HPM_P1;HPM_P2
2022/07/17 00:02:07;;;;;;;1.80;1.70;;;20.10;55.90;;;;;;5040789;28;20450;-69
2022/07/17 00:04:33;;;;;;;2.10;1.33;;;20.10;56.00;;;;;;5025001;28;20259;-69
2022/07/17 00:06:59;;;;;;;3.57;1.70;;;20.10;55.90;;;;;;5044014;28;20216;-69
2022/07/17 00:09:24;;;;;;;2.33;1.50;;;20.00;55.90;;;;;;5059828;28;20240;-69
2022/07/17 00:11:50;;;;;;;2.50;1.93;;;20.00;56.00;;;;;;5044190;28;20237;-69
2022/07/17 00:14:16;;;;;;;3.07;1.70;;;20.00;56.00;;;;;;5061859;28;20245;-69
2022/07/17 00:16:41;;;;;;;2.17;1.50;;;20.00;56.40;;;;;;5038844;28;20219;-70
2022/07/17 00:19:07;;;;;;;2.93;1.53;;;19.90;56.00;;;;;;5039974;28;20226;-69
2022/07/17 00:21:33;;;;;;;2.20;1.60;;;19.90;56.00;;;;;;5057909;28;20299;-69
2022/07/17 00:23:59;;;;;;;1.90;1.43;;;19.90;56.10;;;;;;5047180;28;20222;-70
2022/07/17 00:26:24;;;;;;;3.03;1.77;;;19.80;56.10;;;;;;5045863;28;20231;-69
2022/07/17 00:28:50;;;;;;;1.43;1.33;;;19.80;56.10;;;;;;5032355;28;20216;-68
2022/07/17 00:31:16;;;;;;;2.23;1.70;;;19.70;56.10;;;;;;5046602;28;20218;-69
2022/07/17 00:33:41;;;;;;;2.53;1.87;;;19.70;56.50;;;;;;5029712;28;20215;-70
2022/07/17 00:36:07;;;;;;;1.50;1.40;;;19.60;56.20;;;;;;5051588;28;20223;-67
2022/07/17 00:38:33;;;;;;;3.57;1.60;;;19.60;56.30;;;;;;5034474;28;20219;-70
2022/07/17 00:40:59;;;;;;;1.97;1.43;;;19.60;56.30;;;;;;5057212;28;20458;-68
2022/07/17 00:43:26;;;;;;;1.80;1.33;;;19.50;56.30;;;;;;5056267;28;20215;-69
2022/07/17 00:46:00;;;;;;;2.43;1.50;;;19.50;56.40;;;;;;5039070;28;20234;-69
2022/07/17 00:48:27;;;;;;;3.57;1.60;;;19.50;56.20;;;;;;5040324;28;20453;-68
2022/07/17 00:50:53;;;;;;;1.73;1.40;;;19.50;56.30;;;;;;5029341;28;20454;-68
2022/07/17 00:53:19;;;;;;;1.77;1.50;;;19.50;56.30;;;;;;5054080;28;20511;-69
2022/07/17 00:55:48;;;;;;;2.37;1.17;;;19.50;56.20;;;;;;5036446;28;21013;-69
2022/07/17 00:58:22;;;;;;;4.47;1.43;;;19.40;56.50;;;;;;5069097;28;20495;-70
2022/07/17 01:00:51;;;;;;;2.00;1.50;;;19.30;56.40;;;;;;5061579;28;20441;-68
2022/07/17 01:03:18;;;;;;;3.10;1.67;;;19.30;56.50;;;;;;5071963;28;20457;-68
2022/07/17 01:05:44;;;;;;;2.50;1.90;;;19.30;56.40;;;;;;5045416;28;20503;-69
2022/07/17 01:08:10;;;;;;;2.57;1.53;;;19.30;56.30;;;;;;5054514;28;20449;-68
2022/07/17 01:10:36;;;;;;;2.73;1.80;;;19.40;56.30;;;;;;5054563;28;20218;-69
2022/07/17 01:13:02;;;;;;;1.73;1.63;;;19.40;56.30;;;;;;5054493;28;20442;-69
2022/07/17 01:15:28;;;;;;;1.40;1.30;;;19.40;56.30;;;;;;5053895;28;20268;-69
2022/07/17 01:17:54;;;;;;;2.43;1.43;;;19.30;56.20;;;;;;5077142;28;20503;-69
2022/07/17 01:20:20;;;;;;;1.10;1.10;;;19.30;56.10;;;;;;5071840;28;20496;-69
2022/07/17 01:22:48;;;;;;;2.70;2.30;;;19.30;56.20;;;;;;5055036;28;20226;-69
2022/07/17 01:25:15;;;;;;;1.67;1.57;;;19.30;56.20;;;;;;5051820;28;20262;-69
2022/07/17 01:27:41;;;;;;;3.03;1.90;;;19.30;56.20;;;;;;5054708;28;20464;-69
2022/07/17 01:30:08;;;;;;;1.53;1.40;;;19.30;56.20;;;;;;5069325;28;20472;-70
2022/07/17 01:32:35;;;;;;;1.80;1.70;;;19.30;56.20;;;;;;5045214;28;20608;-69
2022/07/17 01:35:02;;;;;;;1.80;1.70;;;19.20;56.10;;;;;;5049903;28;20469;-68
2022/07/17 01:37:28;;;;;;;1.80;1.53;;;19.20;56.20;;;;;;5048665;28;20451;-68
2022/07/17 01:39:54;;;;;;;2.00;1.80;;;19.20;56.20;;;;;;5050180;28;20449;-70
2022/07/17 01:42:21;;;;;;;2.60;1.70;;;19.20;56.20;;;;;;5043585;28;20460;-69
2022/07/17 01:44:47;;;;;;;1.70;1.60;;;19.10;56.20;;;;;;5042095;28;20231;-69
2022/07/17 01:47:14;;;;;;;2.23;1.80;;;19.10;56.20;;;;;;5066769;28;20472;-69
2022/07/17 01:49:45;;;;;;;2.40;1.50;;;19.10;56.30;;;;;;5045300;28;20607;-69
2022/07/17 01:52:11;;;;;;;6.67;2.30;;;19.00;56.30;;;;;;5023168;28;20482;-70
2022/07/17 01:54:36;;;;;;;1.60;1.50;;;19.00;56.20;;;;;;5045438;28;20567;-69
2022/07/17 01:57:02;;;;;;;2.57;2.03;;;19.00;56.40;;;;;;5030714;28;20214;-70
2022/07/17 01:59:28;;;;;;;3.97;1.80;;;19.00;56.50;;;;;;5065181;28;20215;-69
2022/07/17 02:01:53;;;;;;;1.97;1.70;;;18.90;56.40;;;;;;5059432;28;20627;-69
2022/07/17 02:04:19;;;;;;;1.97;1.77;;;18.90;56.50;;;;;;5060368;28;20227;-69
2022/07/17 02:06:45;;;;;;;1.83;1.60;;;18.90;56.50;;;;;;5045917;28;20231;-68
2022/07/17 02:09:10;;;;;;;2.20;1.50;;;18.80;56.50;;;;;;5028271;28;20223;-70
2022/07/17 02:11:36;;;;;;;2.07;1.77;;;18.80;56.50;;;;;;5064199;28;20215;-69
2022/07/17 02:14:02;;;;;;;2.70;1.53;;;18.80;56.60;;;;;;5030892;28;20703;-69
2022/07/17 02:16:27;;;;;;;1.73;1.63;;;18.70;56.60;;;;;;5050840;28;20630;-69
2022/07/17 02:18:53;;;;;;;4.40;1.90;;;18.70;56.60;;;;;;5046260;28;20218;-69
2022/07/17 02:21:19;;;;;;;1.97;1.30;;;18.70;56.60;;;;;;5052099;28;20579;-69
2022/07/17 02:23:45;;;;;;;1.63;1.53;;;18.70;56.60;;;;;;5050826;28;20573;-69
2022/07/17 02:26:11;;;;;;;1.90;1.60;;;18.60;56.50;;;;;;5047931;28;20251;-70
2022/07/17 02:28:36;;;;;;;2.10;1.77;;;18.60;56.50;;;;;;5031670;28;20276;-69
2022/07/17 02:31:02;;;;;;;1.70;1.30;;;18.60;56.60;;;;;;5064042;28;20247;-69
2022/07/17 02:33:28;;;;;;;2.27;1.57;;;18.60;56.60;;;;;;5040521;28;20220;-69
2022/07/17 02:35:53;;;;;;;2.80;1.80;;;18.60;56.70;;;;;;5030397;28;20218;-68
2022/07/17 02:38:19;;;;;;;1.93;1.83;;;18.60;56.50;;;;;;5046163;28;20267;-68
2022/07/17 02:40:45;;;;;;;1.50;1.40;;;18.50;56.70;;;;;;5052449;28;20310;-68
2022/07/17 02:43:11;;;;;;;1.53;1.43;;;18.50;56.60;;;;;;5042526;28;20253;-69
2022/07/17 02:45:36;;;;;;;2.87;1.40;;;18.40;56.80;;;;;;5048181;28;20228;-69
2022/07/17 02:48:02;;;;;;;1.70;1.40;;;18.40;56.80;;;;;;5048638;28;20219;-69
2022/07/17 02:50:28;;;;;;;2.23;1.43;;;18.40;56.80;;;;;;5024205;28;20219;-69
2022/07/17 02:52:53;;;;;;;1.80;1.67;;;18.30;56.80;;;;;;5026300;28;20223;-69
2022/07/17 02:55:20;;;;;;;3.40;1.40;;;18.30;56.80;;;;;;5045902;28;20695;-69
2022/07/17 02:57:48;;;;;;;1.57;1.47;;;18.30;56.80;;;;;;5047827;28;20234;-69
2022/07/17 03:00:16;;;;;;;1.50;1.40;;;18.30;56.90;;;;;;5044927;28;20454;-68
2022/07/17 03:02:44;;;;;;;1.60;1.50;;;18.20;56.80;;;;;;5065351;28;20454;-69
2022/07/17 03:05:10;;;;;;;3.47;1.70;;;18.20;56.80;;;;;;5035181;28;20473;-69
2022/07/17 03:07:36;;;;;;;1.97;1.50;;;18.10;57.00;;;;;;5039257;28;20441;-68
2022/07/17 03:10:03;;;;;;;2.20;1.70;;;18.10;56.90;;;;;;5046265;28;20950;-69
2022/07/17 03:12:29;;;;;;;1.63;1.53;;;18.10;57.00;;;;;;5064712;28;20227;-69
2022/07/17 03:14:54;;;;;;;3.80;1.40;;;18.10;56.90;;;;;;5032288;28;20470;-69
2022/07/17 03:17:20;;;;;;;1.73;1.60;;;18.00;57.10;;;;;;5048416;28;20216;-69
2022/07/17 03:19:46;;;;;;;1.83;1.70;;;18.00;57.10;;;;;;5051960;28;20219;-69
2022/07/17 03:22:11;;;;;;;1.93;1.33;;;18.00;57.10;;;;;;5047640;28;20227;-69
2022/07/17 03:24:37;;;;;;;1.73;1.57;;;18.00;57.30;;;;;;5050719;28;20261;-70
2022/07/17 03:27:04;;;;;;;2.23;1.40;;;17.90;57.30;;;;;;5058783;28;20322;-69
2022/07/17 03:29:30;;;;;;;1.60;1.50;;;17.90;57.30;;;;;;5035704;28;20509;-68
2022/07/17 03:31:55;;;;;;;2.03;1.30;;;17.90;57.40;;;;;;5025438;28;20241;-67
2022/07/17 03:34:21;;;;;;;1.60;1.50;;;17.80;57.20;;;;;;5027412;28;20281;-67
2022/07/17 03:36:47;;;;;;;1.60;1.50;;;17.80;57.20;;;;;;5048661;28;20758;-69
2022/07/17 03:39:14;;;;;;;2.70;1.57;;;17.80;57.30;;;;;;5034762;28;20285;-69
2022/07/17 03:41:39;;;;;;;1.67;1.10;;;17.80;57.20;;;;;;5062724;28;20534;-69
2022/07/17 03:44:05;;;;;;;1.27;1.10;;;17.80;57.20;;;;;;5042507;28;20576;-68
2022/07/17 03:46:34;;;;;;;1.80;1.70;;;17.80;57.30;;;;;;5062992;28;20246;-68
2022/07/17 03:49:00;;;;;;;1.60;1.50;;;17.80;57.50;;;;;;5040240;28;20482;-68
2022/07/17 03:51:25;;;;;;;1.87;1.30;;;17.70;57.30;;;;;;5043581;28;20224;-69
2022/07/17 03:53:51;;;;;;;1.67;1.53;;;17.60;57.60;;;;;;5060323;28;20235;-69
2022/07/17 03:56:18;;;;;;;1.67;1.57;;;17.60;57.40;;;;;;5060661;28;20223;-69
2022/07/17 03:58:44;;;;;;;2.00;1.87;;;17.50;57.60;;;;;;5066245;28;20241;-69
2022/07/17 04:01:09;;;;;;;2.47;1.50;;;17.50;57.80;;;;;;5025867;28;20451;-70
2022/07/17 04:03:35;;;;;;;4.00;1.60;;;17.50;57.50;;;;;;5025450;28;20227;-68
2022/07/17 04:06:02;;;;;;;1.60;1.30;;;17.50;57.80;;;;;;5026219;28;20302;-69
2022/07/17 04:08:27;;;;;;;1.23;1.13;;;17.60;57.70;;;;;;5045839;28;20211;-69
2022/07/17 04:10:53;;;;;;;2.13;1.40;;;17.50;57.60;;;;;;5046300;28;20938;-69
2022/07/17 04:13:19;;;;;;;2.90;1.70;;;17.50;57.60;;;;;;5062562;28;20216;-68
2022/07/17 04:15:55;;;;;;;1.33;1.23;;;17.50;57.60;;;;;;5027619;28;20221;-69
2022/07/17 04:18:26;;;;;;;1.50;1.40;;;17.50;57.70;;;;;;5048952;28;20219;-68
2022/07/17 04:20:53;;;;;;;1.47;1.37;;;17.50;58.00;;;;;;5060032;28;20463;-69
2022/07/17 04:23:19;;;;;;;1.30;1.10;;;17.40;58.10;;;;;;5039006;28;20458;-69
2022/07/17 04:25:45;;;;;;;1.47;1.33;;;17.30;58.20;;;;;;5061183;28;20471;-70
2022/07/17 04:28:11;;;;;;;2.30;1.40;;;17.30;58.30;;;;;;5043272;28;20961;-68
2022/07/17 04:30:37;;;;;;;1.83;1.27;;;17.30;58.20;;;;;;5061644;28;20589;-69
2022/07/17 04:33:03;;;;;;;1.20;1.03;;;17.20;58.00;;;;;;5046110;28;20450;-69
2022/07/17 04:35:29;;;;;;;1.10;1.10;;;17.30;58.10;;;;;;5040594;28;20853;-68
2022/07/17 04:37:54;;;;;;;2.13;1.60;;;17.20;58.30;;;;;;5052309;28;20380;-68
2022/07/17 04:40:21;;;;;;;2.30;1.00;;;17.30;58.20;;;;;;5047279;28;21022;-69
2022/07/17 04:42:46;;;;;;;1.23;1.13;;;17.30;58.30;;;;;;5049475;28;20303;-69
2022/07/17 04:45:15;;;;;;;1.53;1.33;;;17.30;58.10;;;;;;5042899;28;20541;-69
2022/07/17 04:47:41;;;;;;;1.97;1.10;;;17.30;58.00;;;;;;5028328;28;20597;-69
2022/07/17 04:50:08;;;;;;;1.57;1.27;;;17.40;58.20;;;;;;5025635;28;20454;-69
2022/07/17 04:52:35;;;;;;;1.63;1.53;;;17.40;58.00;;;;;;5024923;28;20993;-68
2022/07/17 04:55:00;;;;;;;1.10;1.00;;;17.40;58.10;;;;;;5023099;28;20453;-69
2022/07/17 04:57:26;;;;;;;3.07;1.50;;;17.40;58.10;;;;;;5050350;28;20444;-68
2022/07/17 04:59:52;;;;;;;1.23;1.13;;;17.40;58.20;;;;;;5047404;28;20219;-69
2022/07/17 05:02:18;;;;;;;1.40;1.30;;;17.50;58.30;;;;;;5047003;28;20211;-68
2022/07/17 05:04:43;;;;;;;1.30;1.20;;;17.50;58.30;;;;;;5043634;28;20461;-69
2022/07/17 05:07:09;;;;;;;1.90;0.97;;;17.50;58.20;;;;;;5060335;28;20707;-70
2022/07/17 05:09:35;;;;;;;2.27;1.40;;;17.50;58.30;;;;;;5023132;28;20301;-69
2022/07/17 05:12:01;;;;;;;2.40;1.43;;;17.60;58.40;;;;;;5048016;28;20224;-68
2022/07/17 05:14:26;;;;;;;1.37;1.27;;;17.60;58.60;;;;;;5049649;28;20288;-69
2022/07/17 05:16:52;;;;;;;1.27;1.20;;;17.60;58.60;;;;;;5068386;28;20237;-68
2022/07/17 05:19:18;;;;;;;1.73;1.40;;;17.70;58.90;;;;;;5044204;28;20227;-70
2022/07/17 05:21:44;;;;;;;5.53;1.40;;;17.70;59.10;;;;;;5039496;28;20470;-69
2022/07/17 05:24:10;;;;;;;2.20;1.30;;;17.70;59.00;;;;;;5040979;28;20228;-69
2022/07/17 05:26:36;;;;;;;2.97;1.50;;;17.70;59.40;;;;;;5045260;28;20217;-70
2022/07/17 05:29:02;;;;;;;1.33;1.23;;;17.80;59.20;;;;;;5052349;28;20445;-69
2022/07/17 05:31:27;;;;;;;1.20;1.10;;;17.80;59.40;;;;;;5025694;28;20222;-69
2022/07/17 05:33:53;;;;;;;1.53;1.30;;;17.90;59.30;;;;;;5058985;28;20320;-69
2022/07/17 05:36:19;;;;;;;2.57;1.33;;;17.90;59.40;;;;;;5051748;28;20695;-69
2022/07/17 05:38:44;;;;;;;2.80;1.30;;;17.90;59.10;;;;;;5050118;28;20249;-68
2022/07/17 05:41:10;;;;;;;5.13;1.83;;;18.00;59.30;;;;;;5031937;28;20215;-69
2022/07/17 05:43:36;;;;;;;1.43;1.33;;;18.00;59.10;;;;;;5040326;28;20222;-69
2022/07/17 05:46:01;;;;;;;2.10;1.50;;;18.00;59.30;;;;;;5064582;28;20227;-68
2022/07/17 05:48:29;;;;;;;1.73;1.60;;;18.10;59.40;;;;;;5033052;28;20220;-68
2022/07/17 05:50:55;;;;;;;2.07;1.47;;;18.10;59.70;;;;;;5062168;28;20226;-68
2022/07/17 05:53:21;;;;;;;1.20;1.10;;;18.20;59.30;;;;;;5045654;28;20456;-69
2022/07/17 05:55:46;;;;;;;2.73;1.10;;;18.20;59.50;;;;;;5050995;28;20214;-68
2022/07/17 05:58:12;;;;;;;3.10;1.80;;;18.20;59.60;;;;;;5048932;28;20261;-68
2022/07/17 06:00:38;;;;;;;2.13;1.00;;;18.30;59.50;;;;;;5038484;28;20219;-68
2022/07/17 06:03:04;;;;;;;1.30;1.20;;;18.30;59.60;;;;;;5051092;28;20316;-69
2022/07/17 06:05:30;;;;;;;1.37;1.27;;;18.40;59.90;;;;;;5041525;28;20244;-68
2022/07/17 06:07:57;;;;;;;4.10;1.10;;;18.50;59.80;;;;;;5047281;28;20477;-69
2022/07/17 06:10:24;;;;;;;3.03;1.17;;;18.50;60.20;;;;;;5046245;28;20223;-69
2022/07/17 06:12:52;;;;;;;1.63;1.53;;;18.60;60.50;;;;;;5052933;28;20533;-69
2022/07/17 06:15:18;;;;;;;1.00;1.00;;;18.70;60.30;;;;;;5031021;28;20462;-69
2022/07/17 06:17:43;;;;;;;1.53;1.43;;;18.70;60.50;;;;;;5050774;28;20456;-69
2022/07/17 06:20:09;;;;;;;1.43;1.20;;;18.80;60.70;;;;;;5046810;28;20715;-70
2022/07/17 06:22:35;;;;;;;1.20;1.10;;;18.90;60.90;;;;;;5044805;28;20219;-69
2022/07/17 06:25:01;;;;;;;1.33;1.03;;;19.00;60.80;;;;;;5026922;28;21056;-68
2022/07/17 06:27:26;;;;;;;1.77;1.13;;;19.00;60.80;;;;;;5062771;28;20231;-69
2022/07/17 06:29:52;;;;;;;1.73;1.20;;;19.10;60.80;;;;;;5050335;28;20258;-69
2022/07/17 06:32:18;;;;;;;1.20;1.10;;;19.10;61.00;;;;;;5049746;28;20215;-69
2022/07/17 06:34:43;;;;;;;1.20;1.10;;;19.20;61.20;;;;;;5058050;28;20223;-69
2022/07/17 06:37:09;;;;;;;1.37;1.27;;;19.30;61.20;;;;;;5065203;28;20227;-69
2022/07/17 06:39:35;;;;;;;3.17;1.30;;;19.40;61.30;;;;;;5054646;28;20215;-69
2022/07/17 06:42:01;;;;;;;2.07;1.27;;;19.50;61.20;;;;;;5034547;28;20806;-70
2022/07/17 06:44:27;;;;;;;3.33;1.30;;;19.60;61.50;;;;;;5045451;28;20232;-69
2022/07/17 06:46:52;;;;;;;1.40;1.10;;;19.60;61.20;;;;;;5047423;28;20433;-69
2022/07/17 06:49:18;;;;;;;1.40;1.13;;;19.70;61.20;;;;;;5051430;28;20532;-70
2022/07/17 06:51:45;;;;;;;1.93;1.30;;;19.90;61.30;;;;;;5065203;28;20224;-69
2022/07/17 06:54:12;;;;;;;2.60;1.40;;;19.90;60.70;;;;;;5050613;28;20216;-70
2022/07/17 06:56:38;;;;;;;2.23;1.30;;;20.00;60.70;;;;;;5058580;28;20814;-69
2022/07/17 06:59:06;;;;;;;1.63;1.40;;;20.10;60.10;;;;;;5048190;28;20598;-68
2022/07/17 07:01:34;;;;;;;2.20;1.13;;;20.10;59.80;;;;;;5030300;28;20225;-69
2022/07/17 07:04:00;;;;;;;1.57;1.40;;;20.10;59.60;;;;;;5045251;28;20560;-68
2022/07/17 07:06:25;;;;;;;2.20;1.33;;;20.20;59.60;;;;;;5046102;28;20473;-69
2022/07/17 07:08:51;;;;;;;2.77;1.43;;;20.30;59.70;;;;;;5045050;28;20446;-68
2022/07/17 07:11:17;;;;;;;1.53;1.10;;;20.40;59.60;;;;;;5044060;28;20270;-69
2022/07/17 07:13:43;;;;;;;5.37;1.63;;;20.50;59.40;;;;;;5046746;28;20219;-69
2022/07/17 07:16:08;;;;;;;1.97;1.60;;;20.50;59.10;;;;;;5027901;28;20683;-70
2022/07/17 07:18:34;;;;;;;1.80;1.30;;;20.60;59.10;;;;;;5042879;28;20341;-69
2022/07/17 07:20:59;;;;;;;2.67;1.40;;;20.70;59.00;;;;;;5028635;28;20246;-69
2022/07/17 07:23:25;;;;;;;4.80;1.83;;;20.80;58.80;;;;;;5031719;28;20253;-69
2022/07/17 07:25:51;;;;;;;2.93;1.40;;;21.00;59.00;;;;;;5025690;28;20308;-68
2022/07/17 07:28:17;;;;;;;1.93;1.23;;;21.10;58.90;;;;;;5039640;28;20216;-68
2022/07/17 07:30:43;;;;;;;3.40;1.50;;;21.10;58.80;;;;;;5044956;28;20638;-69
2022/07/17 07:33:09;;;;;;;1.83;1.57;;;21.20;58.80;;;;;;5043517;28;20265;-69
2022/07/17 07:35:35;;;;;;;1.97;1.30;;;21.20;58.50;;;;;;5040280;28;20449;-69
2022/07/17 07:38:02;;;;;;;2.27;1.40;;;21.30;58.80;;;;;;5047631;28;20227;-69
2022/07/17 07:40:28;;;;;;;2.57;1.50;;;21.30;58.60;;;;;;5044400;28;20204;-69
2022/07/17 07:42:54;;;;;;;1.60;1.50;;;21.40;58.40;;;;;;5029952;28;20449;-67
2022/07/17 07:45:20;;;;;;;2.00;1.13;;;21.50;58.60;;;;;;5046504;28;20327;-70
2022/07/17 07:47:48;;;;;;;1.80;1.30;;;21.60;58.40;;;;;;5047283;28;20368;-70
2022/07/17 07:50:14;;;;;;;1.67;1.20;;;21.70;58.20;;;;;;5058809;28;20243;-67
2022/07/17 07:52:40;;;;;;;1.93;1.67;;;21.70;57.70;;;;;;5043005;28;21155;-69
2022/07/17 07:55:08;;;;;;;5.40;1.90;;;21.70;58.00;;;;;;5058828;28;20458;-69
2022/07/17 07:57:34;;;;;;;1.73;1.50;;;21.90;57.90;;;;;;5049292;28;21012;-68
2022/07/17 07:59:59;;;;;;;1.80;1.70;;;22.00;57.70;;;;;;5060416;28;20480;-69
2022/07/17 08:02:25;;;;;;;4.50;1.90;;;22.10;57.80;;;;;;5044102;28;20461;-69
2022/07/17 08:04:51;;;;;;;4.10;1.50;;;22.20;57.70;;;;;;5041436;28;20227;-67
2022/07/17 08:07:17;;;;;;;3.03;1.83;;;22.30;57.80;;;;;;5038442;28;20253;-69
2022/07/17 08:09:42;;;;;;;2.70;1.73;;;22.40;57.30;;;;;;5059442;28;20231;-70
2022/07/17 08:12:08;;;;;;;2.60;1.50;;;22.50;57.20;;;;;;5044533;28;20210;-70
2022/07/17 08:14:34;;;;;;;1.73;1.63;;;22.70;57.20;;;;;;5042279;28;20218;-70
2022/07/17 08:16:59;;;;;;;2.27;1.60;;;22.70;56.90;;;;;;5057483;28;20253;-68
2022/07/17 08:19:25;;;;;;;1.40;1.30;;;22.80;57.00;;;;;;5040105;28;20305;-69
2022/07/17 08:21:50;;;;;;;2.40;1.17;;;23.00;57.00;;;;;;5044739;28;20222;-69
2022/07/17 08:24:16;;;;;;;2.57;1.60;;;23.00;56.70;;;;;;5044158;28;20272;-69
2022/07/17 08:26:43;;;;;;;1.33;1.23;;;23.10;56.20;;;;;;5043031;28;20226;-68
2022/07/17 08:29:09;;;;;;;1.53;1.23;;;23.20;56.10;;;;;;5040391;28;20214;-70
2022/07/17 08:31:34;;;;;;;2.90;1.30;;;23.30;56.20;;;;;;5054539;28;20528;-69
2022/07/17 08:34:00;;;;;;;3.00;1.70;;;23.30;56.10;;;;;;5047553;28;20239;-69
2022/07/17 08:36:26;;;;;;;3.60;1.63;;;23.40;55.90;;;;;;5032568;28;20230;-69
2022/07/17 08:38:52;;;;;;;4.73;1.20;;;23.40;55.90;;;;;;5074198;28;20210;-69
2022/07/17 08:41:21;;;;;;;1.93;1.50;;;23.50;56.20;;;;;;5030043;28;20211;-69
2022/07/17 08:43:48;;;;;;;1.53;1.43;;;23.60;55.90;;;;;;5055028;28;20467;-69
2022/07/17 08:46:17;;;;;;;1.40;1.30;;;23.80;55.60;;;;;;5051702;28;20457;-69
2022/07/17 08:48:45;;;;;;;1.47;1.37;;;23.80;55.30;;;;;;5058360;28;20475;-69
2022/07/17 08:51:11;;;;;;;5.20;2.90;;;24.00;55.30;;;;;;5032300;28;20450;-68
2022/07/17 08:53:38;;;;;;;2.70;1.30;;;24.10;55.40;;;;;;5031915;28;20498;-69
2022/07/17 08:56:04;;;;;;;2.53;1.80;;;24.10;55.30;;;;;;5029837;28;20225;-68
2022/07/17 08:58:30;;;;;;;1.20;1.10;;;24.20;55.40;;;;;;5036546;28;20443;-69
2022/07/17 09:00:55;;;;;;;1.70;1.60;;;24.40;55.10;;;;;;5064172;28;20793;-69
2022/07/17 09:03:23;;;;;;;1.47;1.30;;;24.40;55.10;;;;;;5030807;28;20450;-69
2022/07/17 09:05:49;;;;;;;2.40;1.60;;;24.40;55.10;;;;;;5051740;28;20249;-69
2022/07/17 09:08:23;;;;;;;4.57;1.73;;;24.40;55.10;;;;;;5060162;28;20488;-69
2022/07/17 09:10:51;;;;;;;2.07;1.53;;;24.50;55.00;;;;;;5044193;28;20477;-69
2022/07/17 09:13:20;;;;;;;1.43;1.20;;;24.70;55.10;;;;;;5052828;28;20520;-69
2022/07/17 09:15:47;;;;;;;2.63;1.20;;;24.80;55.10;;;;;;5069608;28;20547;-69
2022/07/17 09:18:14;;;;;;;1.27;1.17;;;24.80;54.90;;;;;;5068498;28;20499;-69
2022/07/17 09:20:51;;;;;;;5.10;1.30;;;24.90;54.80;;;;;;5050917;28;20992;-69
2022/07/17 09:23:18;;;;;;;1.40;1.30;;;24.80;54.40;;;;;;5036653;28;20993;-69
2022/07/17 09:25:47;;;;;;;4.40;1.40;;;25.00;54.60;;;;;;5049156;28;20475;-69
2022/07/17 09:28:14;;;;;;;1.73;1.60;;;25.10;54.60;;;;;;5030795;28;20909;-70
2022/07/17 09:30:45;;;;;;;1.47;1.20;;;25.20;54.30;;;;;;5050916;28;20813;-69
2022/07/17 09:33:17;;;;;;;1.40;1.30;;;25.20;54.30;;;;;;5036645;28;20518;-70
2022/07/17 09:35:50;;;;;;;1.37;1.27;;;25.30;54.60;;;;;;5053448;28;20462;-69
2022/07/17 09:38:35;;;;;;;1.63;1.23;;;25.40;54.70;;;;;;5047629;28;20505;-69
2022/07/17 09:41:09;;;;;;;2.70;1.37;;;25.50;54.30;;;;;;5036083;28;20467;-69
2022/07/17 09:43:59;;;;;;;3.50;3.20;;;25.50;53.90;;;;;;5044416;28;20446;-66
2022/07/17 09:46:30;;;;;;;1.30;1.20;;;25.50;53.80;;;;;;5031902;28;20456;-68
2022/07/17 09:48:58;;;;;;;1.93;1.67;;;25.50;53.80;;;;;;5050990;28;20458;-69
2022/07/17 09:51:33;;;;;;;3.10;1.70;;;25.70;53.90;;;;;;5060326;28;20477;-69
2022/07/17 09:54:02;;;;;;;1.30;1.20;;;25.70;53.50;;;;;;5046206;28;20510;-70
2022/07/17 09:56:30;;;;;;;2.60;1.40;;;25.80;53.50;;;;;;5060734;28;20457;-68
2022/07/17 09:59:07;;;;;;;1.40;1.07;;;25.80;53.70;;;;;;5031931;28;20461;-70
2022/07/17 10:01:35;;;;;;;1.70;1.60;;;25.80;52.90;;;;;;5060813;28;20456;-69
2022/07/17 10:04:01;;;;;;;1.50;1.40;;;25.80;52.80;;;;;;5040259;28;20808;-70
2022/07/17 10:06:28;;;;;;;2.07;1.40;;;25.80;52.60;;;;;;5047046;28;21564;-69
2022/07/17 10:08:55;;;;;;;2.30;1.60;;;25.80;52.70;;;;;;5063955;28;20462;-69
2022/07/17 10:11:27;;;;;;;3.77;2.30;;;26.00;52.50;;;;;;5064169;28;20536;-70
2022/07/17 10:13:55;;;;;;;1.20;1.20;;;26.10;53.10;;;;;;5030791;28;20468;-70
2022/07/17 10:16:25;;;;;;;2.50;1.50;;;26.30;53.30;;;;;;5049652;28;20452;-69
2022/07/17 10:18:54;;;;;;;1.03;1.03;;;26.50;53.10;;;;;;5048465;28;20461;-70
2022/07/17 10:21:21;;;;;;;1.70;1.57;;;26.60;52.70;;;;;;5062782;28;20528;-69
2022/07/17 10:24:09;;;;;;;1.73;1.57;;;26.70;52.90;;;;;;5052794;28;20490;-69
2022/07/17 10:26:38;;;;;;;1.40;1.30;;;26.80;52.40;;;;;;5068874;28;20442;-69
2022/07/17 10:29:08;;;;;;;2.90;1.70;;;26.80;51.90;;;;;;5056214;28;20457;-69
2022/07/17 10:31:34;;;;;;;3.00;1.43;;;26.90;52.10;;;;;;5023407;28;20444;-69
2022/07/17 10:34:03;;;;;;;1.57;1.40;;;27.00;52.30;;;;;;5047440;28;20223;-69
2022/07/17 10:36:47;;;;;;;2.92;1.88;;;27.10;52.20;;;;;;5046068;28;20622;-69
2022/07/17 10:39:20;;;;;;;1.60;1.50;;;27.10;51.70;;;;;;5044832;28;20240;-69
2022/07/17 10:41:57;;;;;;;5.00;1.80;;;27.20;52.00;;;;;;5042623;28;20237;-69
2022/07/17 10:44:27;;;;;;;3.03;1.67;;;27.30;51.90;;;;;;5033532;28;20237;-68
2022/07/17 10:46:54;;;;;;;1.33;1.23;;;27.40;51.40;;;;;;5050959;28;20220;-68
2022/07/17 10:49:20;;;;;;;2.17;1.30;;;27.50;51.70;;;;;;5058244;28;20328;-69
2022/07/17 10:51:46;;;;;;;1.67;1.35;;;27.40;51.30;;;;;;5052614;28;20298;-69
2022/07/17 10:54:12;;;;;;;1.92;1.70;;;27.50;51.60;;;;;;5051500;28;20235;-69
2022/07/17 10:56:44;;;;;;;3.08;2.35;;;27.60;51.30;;;;;;5043930;28;20588;-69
2022/07/17 10:59:10;;;;;;;2.80;2.45;;;27.70;51.00;;;;;;5069969;28;20756;-69
2022/07/17 11:01:36;;;;;;;2.42;2.17;;;27.80;51.00;;;;;;5036134;28;20227;-69
2022/07/17 11:04:04;;;;;;;3.25;3.05;;;27.90;50.40;;;;;;5036083;28;20332;-69
2022/07/17 11:06:35;;;;;;;2.67;2.38;;;28.00;50.70;;;;;;5065071;28;20236;-70
2022/07/17 11:09:03;;;;;;;4.05;2.92;;;28.20;50.70;;;;;;5057711;28;20224;-69
2022/07/17 11:11:48;;;;;;;3.50;3.20;;;28.40;50.30;;;;;;5049614;28;20225;-69
2022/07/17 11:14:15;;;;;;;2.70;2.50;;;28.50;49.90;;;;;;5050931;28;20291;-69
2022/07/17 11:17:02;;;;;;;4.65;4.25;;;28.70;49.80;;;;;;5041730;28;20224;-69
2022/07/17 11:19:30;;;;;;;14.00;12.77;;;28.60;49.40;;;;;;5051203;28;20228;-70
2022/07/17 11:21:58;;;;;;;9.07;8.32;;;28.70;49.80;;;;;;5057209;28;20774;-69
2022/07/17 11:24:26;;;;;;;4.55;4.15;;;28.70;49.80;;;;;;5063912;28;20272;-69
2022/07/17 11:26:52;;;;;;;3.40;3.20;;;28.70;49.60;;;;;;5035376;28;20237;-69
2022/07/17 11:29:18;;;;;;;3.78;2.83;;;28.70;50.00;;;;;;5062901;28;20698;-69
2022/07/17 11:31:44;;;;;;;2.35;2.15;;;28.80;49.80;;;;;;5033915;28;20221;-69
2022/07/17 11:34:11;;;;;;;2.53;2.25;;;28.90;49.90;;;;;;5034087;28;20228;-70
2022/07/17 11:36:37;;;;;;;1.98;1.77;;;28.80;49.00;;;;;;5053529;28;20263;-69
2022/07/17 11:39:18;;;;;;;1.55;1.45;;;28.80;49.30;;;;;;5051628;28;20248;-69
2022/07/17 11:41:50;;;;;;;3.35;2.30;;;28.60;48.70;;;;;;5061552;28;20221;-69
2022/07/17 11:44:19;;;;;;;1.88;1.77;;;28.70;48.30;;;;;;5063859;28;20309;-70
2022/07/17 11:46:48;;;;;;;2.42;1.70;;;28.70;48.80;;;;;;5036900;28;20226;-70
2022/07/17 11:49:30;;;;;;;2.13;1.70;;;28.80;48.40;;;;;;5044759;28;20275;-70
2022/07/17 11:51:58;;;;;;;1.50;1.33;;;28.80;47.80;;;;;;5058903;28;20257;-70
2022/07/17 11:54:25;;;;;;;2.72;1.77;;;28.80;48.00;;;;;;5030516;28;20278;-70
2022/07/17 11:56:57;;;;;;;1.42;1.33;;;28.80;48.40;;;;;;5062838;28;20341;-69
2022/07/17 11:59:31;;;;;;;3.28;1.40;;;28.90;48.90;;;;;;5043118;28;20719;-69
2022/07/17 12:02:06;;;;;;;2.00;1.90;;;29.00;48.70;;;;;;5027805;28;20235;-69
2022/07/17 12:04:32;;;;;;;2.30;1.60;;;29.10;48.60;;;;;;5059983;28;20235;-70
2022/07/17 12:07:02;;;;;;;1.88;1.27;;;29.40;47.60;;;;;;5042724;28;20318;-69
2022/07/17 12:09:33;;;;;;;2.85;1.50;;;29.50;47.60;;;;;;5050791;28;20248;-69
2022/07/17 12:11:59;;;;;;;2.67;1.50;;;29.60;47.80;;;;;;5062813;28;20229;-69
2022/07/17 12:14:25;;;;;;;1.58;1.48;;;29.60;48.00;;;;;;5027003;28;20228;-69
2022/07/17 12:16:51;;;;;;;2.75;2.10;;;29.50;47.40;;;;;;5044320;28;20246;-70
2022/07/17 12:19:19;;;;;;;2.67;1.52;;;29.30;47.40;;;;;;5049389;28;20215;-69
2022/07/17 12:21:57;;;;;;;1.60;1.50;;;29.20;47.70;;;;;;5045954;28;20233;-69
2022/07/17 12:24:30;;;;;;;1.60;1.50;;;29.30;47.00;;;;;;5051723;28;20226;-69
2022/07/17 12:27:04;;;;;;;1.80;1.70;;;29.30;47.50;;;;;;5054876;28;20228;-69
2022/07/17 12:29:30;;;;;;;1.70;1.60;;;29.60;46.90;;;;;;5055329;28;20231;-70
2022/07/17 12:32:10;;;;;;;1.15;1.05;;;30.00;46.90;;;;;;5072602;28;20228;-69
2022/07/17 12:34:44;;;;;;;7.85;1.58;;;29.90;46.50;;;;;;5055028;28;20535;-70
2022/07/17 12:37:11;;;;;;;2.85;1.42;;;29.80;46.50;;;;;;5070539;28;20231;-70
2022/07/17 12:39:37;;;;;;;2.00;1.85;;;29.70;46.60;;;;;;5053895;28;20229;-69
2022/07/17 12:42:03;;;;;;;3.85;1.30;;;29.70;46.30;;;;;;5034874;28;20231;-71
2022/07/17 12:44:29;;;;;;;1.58;1.48;;;29.60;46.20;;;;;;5044348;28;20235;-69
2022/07/17 12:46:54;;;;;;;4.13;1.55;;;29.80;46.10;;;;;;5067965;28;20239;-69
2022/07/17 12:49:20;;;;;;;1.23;1.20;;;30.00;45.40;;;;;;5034345;28;20705;-69